sensor_id;sensor_type;location;lat;lon;timestamp;pressure;altitude;pressure_sealevel;temperature;humidity
65131;BME280;51709;54.912;8.316;2023-04-05T00:02:02;102575.25;;;3.23;52.65
65131;BME280;51709;54.912;8.316;2023-04-05T00:07:23;102576.94;;;3.24;52.76
65131;BME280;51709;54.912;8.316;2023-04-05T00:12:43;102573.56;;;3.23;52.62
65131;BME280;51709;54.912;8.316;2023-04-05T00:18:04;102579.44;;;3.22;52.83
65131;BME280;51709;54.912;8.316;2023-04-05T00:23:25;102566.75;;;3.22;52.86
65131;BME280;51709;54.912;8.316;2023-04-05T00:28:49;102564.97;;;3.20;53.02
65131;BME280;51709;54.912;8.316;2023-04-05T00:34:10;102554.75;;;3.18;53.10
65131;BME280;51709;54.912;8.316;2023-04-05T00:39:31;102553.88;;;3.16;53.20
65131;BME280;51709;54.912;8.316;2023-04-05T00:44:52;102554.59;;;3.14;53.27
65131;BME280;51709;54.912;8.316;2023-04-05T00:50:13;102549.50;;;3.14;53.38
65131;BME280;51709;54.912;8.316;2023-04-05T00:55:35;102552.84;;;3.13;53.47
65131;BME280;51709;54.912;8.316;2023-04-05T01:01:06;102548.63;;;3.12;53.59
65131;BME280;51709;54.912;8.316;2023-04-05T01:06:46;102549.50;;;3.14;53.57
65131;BME280;51709;54.912;8.316;2023-04-05T01:12:16;102544.41;;;3.12;53.82
65131;BME280;51709;54.912;8.316;2023-04-05T01:17:37;102536.09;;;3.16;53.65
65131;BME280;51709;54.912;8.316;2023-04-05T01:23:44;102536.47;;;3.27;53.77
65131;BME280;51709;54.912;8.316;2023-04-05T01:34:53;102543.91;;;3.45;53.61
65131;BME280;51709;54.912;8.316;2023-04-05T01:40:17;102538.34;;;3.55;53.54
65131;BME280;51709;54.912;8.316;2023-04-05T01:45:38;102538.66;;;3.65;53.51
65131;BME280;51709;54.912;8.316;2023-04-05T01:50:59;102520.47;;;3.77;53.30
65131;BME280;51709;54.912;8.316;2023-04-05T01:56:20;102518.31;;;3.88;53.36
65131;BME280;51709;54.912;8.316;2023-04-05T02:01:40;102509.38;;;3.99;53.45
65131;BME280;51709;54.912;8.316;2023-04-05T02:07:01;102509.66;;;4.08;53.52
65131;BME280;51709;54.912;8.316;2023-04-05T02:12:22;102511.69;;;4.19;53.47
65131;BME280;51709;54.912;8.316;2023-04-05T02:17:43;102505.13;;;4.25;53.63
65131;BME280;51709;54.912;8.316;2023-04-05T02:23:08;102494.28;;;4.31;53.74
65131;BME280;51709;54.912;8.316;2023-04-05T02:28:28;102505.44;;;4.36;53.89
65131;BME280;51709;54.912;8.316;2023-04-05T02:33:50;102490.19;;;4.36;54.02
65131;BME280;51709;54.912;8.316;2023-04-05T02:39:10;102495.94;;;4.30;54.39
65131;BME280;51709;54.912;8.316;2023-04-05T02:44:33;102503.41;;;4.24;54.54
65131;BME280;51709;54.912;8.316;2023-04-05T02:49:53;102490.44;;;4.16;54.90
65131;BME280;51709;54.912;8.316;2023-04-05T02:55:17;102483.38;;;4.08;55.12
65131;BME280;51709;54.912;8.316;2023-04-05T03:00:38;102483.75;;;3.93;55.25
65131;BME280;51709;54.912;8.316;2023-04-05T03:06:04;102484.13;;;3.79;55.53
65131;BME280;51709;54.912;8.316;2023-04-05T03:11:34;102478.66;;;3.67;55.61
65131;BME280;51709;54.912;8.316;2023-04-05T03:16:56;102473.94;;;3.53;55.73
65131;BME280;51709;54.912;8.316;2023-04-05T03:22:25;102477.75;;;3.41;56.06
65131;BME280;51709;54.912;8.316;2023-04-05T03:27:49;102463.69;;;3.26;56.01
65131;BME280;51709;54.912;8.316;2023-04-05T03:33:12;102457.50;;;3.18;56.29
65131;BME280;51709;54.912;8.316;2023-04-05T03:38:36;102464.72;;;3.07;56.47
65131;BME280;51709;54.912;8.316;2023-04-05T03:44:08;102447.88;;;2.85;56.40
65131;BME280;51709;54.912;8.316;2023-04-05T03:49:28;102452.59;;;2.75;56.59
65131;BME280;51709;54.912;8.316;2023-04-05T03:54:49;102454.88;;;2.69;56.68
65131;BME280;51709;54.912;8.316;2023-04-05T04:00:14;102446.19;;;2.62;56.90
65131;BME280;51709;54.912;8.316;2023-04-05T04:05:36;102451.03;;;2.56;56.80
65131;BME280;51709;54.912;8.316;2023-04-05T04:11:00;102447.31;;;2.48;57.05
65131;BME280;51709;54.912;8.316;2023-04-05T04:16:26;102444.50;;;2.40;56.90
65131;BME280;51709;54.912;8.316;2023-04-05T04:22:14;102449.59;;;2.40;56.88
65131;BME280;51709;54.912;8.316;2023-04-05T04:28:00;102444.50;;;2.40;56.99
65131;BME280;51709;54.912;8.316;2023-04-05T04:33:40;102447.78;;;2.38;56.92
65131;BME280;51709;54.912;8.316;2023-04-05T04:39:05;102439.31;;;2.37;57.03
65131;BME280;51709;54.912;8.316;2023-04-05T04:44:50;102446.78;;;2.34;57.17
65131;BME280;51709;54.912;8.316;2023-04-05T04:50:35;102449.19;;;2.31;57.27
65131;BME280;51709;54.912;8.316;2023-04-05T04:55:56;102457.56;;;2.28;57.37
65131;BME280;51709;54.912;8.316;2023-04-05T05:01:17;102446.50;;;2.26;57.44
65131;BME280;51709;54.912;8.316;2023-04-05T05:06:38;102448.16;;;2.26;57.57
65131;BME280;51709;54.912;8.316;2023-04-05T05:11:58;102445.50;;;2.23;57.71
65131;BME280;51709;54.912;8.316;2023-04-05T05:17:21;102438.59;;;2.19;57.65
65131;BME280;51709;54.912;8.316;2023-04-05T05:22:42;102452.19;;;2.21;57.55
65131;BME280;51709;54.912;8.316;2023-04-05T05:28:03;102440.44;;;2.23;57.55
65131;BME280;51709;54.912;8.316;2023-04-05T05:33:24;102441.41;;;2.26;57.79
65131;BME280;51709;54.912;8.316;2023-04-05T05:38:45;102436.66;;;2.34;57.62
65131;BME280;51709;54.912;8.316;2023-04-05T05:44:05;102438.88;;;2.47;57.35
65131;BME280;51709;54.912;8.316;2023-04-05T05:49:26;102435.91;;;2.59;57.39
65131;BME280;51709;54.912;8.316;2023-04-05T05:54:47;102434.56;;;2.68;57.50
65131;BME280;51709;54.912;8.316;2023-04-05T06:00:08;102428.09;;;2.76;57.51
65131;BME280;51709;54.912;8.316;2023-04-05T06:05:33;102433.09;;;2.97;57.29
65131;BME280;51709;54.912;8.316;2023-04-05T06:10:54;102432.94;;;3.17;57.31
65131;BME280;51709;54.912;8.316;2023-04-05T06:16:14;102433.41;;;3.31;57.16
65131;BME280;51709;54.912;8.316;2023-04-05T06:21:35;102440.75;;;3.47;57.30
65131;BME280;51709;54.912;8.316;2023-04-05T06:26:59;102436.50;;;3.72;57.15
65131;BME280;51709;54.912;8.316;2023-04-05T06:32:20;102440.03;;;4.03;56.79
65131;BME280;51709;54.912;8.316;2023-04-05T06:37:41;102445.75;;;4.23;56.34
65131;BME280;51709;54.912;8.316;2023-04-05T06:43:02;102445.75;;;4.51;56.29
65131;BME280;51709;54.912;8.316;2023-04-05T06:48:26;102443.94;;;4.75;56.59
65131;BME280;51709;54.912;8.316;2023-04-05T06:53:48;102443.63;;;4.95;56.67
65131;BME280;51709;54.912;8.316;2023-04-05T06:59:09;102435.94;;;5.24;56.58
65131;BME280;51709;54.912;8.316;2023-04-05T07:04:29;102438.53;;;5.58;56.44
65131;BME280;51709;54.912;8.316;2023-04-05T07:09:54;102430.75;;;5.86;56.33
65131;BME280;51709;54.912;8.316;2023-04-05T07:15:15;102437.47;;;6.20;56.11
65131;BME280;51709;54.912;8.316;2023-04-05T07:20:37;102442.34;;;6.47;56.06
65131;BME280;51709;54.912;8.316;2023-04-05T07:26:02;102426.53;;;6.63;56.32
65131;BME280;51709;54.912;8.316;2023-04-05T07:31:27;102434.00;;;6.96;55.88
65131;BME280;51709;54.912;8.316;2023-04-05T07:36:47;102429.78;;;7.44;55.09
65131;BME280;51709;54.912;8.316;2023-04-05T07:42:09;102425.56;;;7.98;54.35
65131;BME280;51709;54.912;8.316;2023-04-05T07:47:32;102420.25;;;8.44;53.82
65131;BME280;51709;54.912;8.316;2023-04-05T07:52:53;102417.25;;;8.74;53.69
65131;BME280;51709;54.912;8.316;2023-04-05T07:58:13;102424.38;;;9.00;53.51
65131;BME280;51709;54.912;8.316;2023-04-05T08:03:36;102412.59;;;9.16;53.72
65131;BME280;51709;54.912;8.316;2023-04-05T08:08:58;102419.59;;;9.34;53.52
65131;BME280;51709;54.912;8.316;2023-04-05T08:14:19;102425.06;;;9.70;53.20
65131;BME280;51709;54.912;8.316;2023-04-05T08:19:40;102422.91;;;10.29;52.07
65131;BME280;51709;54.912;8.316;2023-04-05T08:25:02;102417.00;;;10.47;51.83
65131;BME280;51709;54.912;8.316;2023-04-05T08:30:23;102423.94;;;10.60;51.78
65131;BME280;51709;54.912;8.316;2023-04-05T08:35:43;102412.81;;;10.55;52.07
65131;BME280;51709;54.912;8.316;2023-04-05T08:41:16;102420.44;;;10.43;52.60
65131;BME280;51709;54.912;8.316;2023-04-05T08:46:37;102416.19;;;10.46;52.71
65131;BME280;51709;54.912;8.316;2023-04-05T08:51:59;102409.31;;;10.42;52.85
65131;BME280;51709;54.912;8.316;2023-04-05T08:57:24;102406.03;;;10.79;51.90
65131;BME280;51709;54.912;8.316;2023-04-05T09:02:50;102404.47;;;11.66;49.96
65131;BME280;51709;54.912;8.316;2023-04-05T09:08:14;102394.41;;;13.33;46.08
65131;BME280;51709;54.912;8.316;2023-04-05T09:13:34;102404.53;;;13.62;45.76
65131;BME280;51709;54.912;8.316;2023-04-05T09:18:55;102399.78;;;12.99;47.38
65131;BME280;51709;54.912;8.316;2023-04-05T09:24:28;102407.88;;;12.04;49.50
65131;BME280;51709;54.912;8.316;2023-04-05T09:29:49;102407.00;;;12.07;49.33
65131;BME280;51709;54.912;8.316;2023-04-05T09:35:17;102404.44;;;12.10;48.90
65131;BME280;51709;54.912;8.316;2023-04-05T09:40:43;102396.69;;;12.25;48.42
65131;BME280;51709;54.912;8.316;2023-04-05T09:46:36;102402.56;;;12.58;47.36
65131;BME280;51709;54.912;8.316;2023-04-05T09:51:59;102395.88;;;13.66;44.98
65131;BME280;51709;54.912;8.316;2023-04-05T09:57:20;102405.88;;;14.00;44.46
65131;BME280;51709;54.912;8.316;2023-04-05T10:02:42;102406.19;;;14.49;43.50
65131;BME280;51709;54.912;8.316;2023-04-05T10:08:03;102405.72;;;14.88;42.72
65131;BME280;51709;54.912;8.316;2023-04-05T10:13:27;102398.25;;;15.27;42.06
65131;BME280;51709;54.912;8.316;2023-04-05T10:18:51;102390.81;;;16.10;40.55
65131;BME280;51709;54.912;8.316;2023-04-05T10:24:27;102384.78;;;17.29;38.57
65131;BME280;51709;54.912;8.316;2023-04-05T10:30:07;102374.25;;;18.33;37.00
65131;BME280;51709;54.912;8.316;2023-04-05T10:41:15;102372.09;;;17.86;38.80
65131;BME280;51709;54.912;8.316;2023-04-05T10:46:39;102358.31;;;19.02;37.41
65131;BME280;51709;54.912;8.316;2023-04-05T10:52:01;102364.22;;;27.35;26.22
65131;BME280;51709;54.912;8.316;2023-04-05T10:57:22;102365.59;;;37.70;16.53
65131;BME280;51709;54.912;8.316;2023-04-05T11:02:44;102379.41;;;44.01;12.70
65131;BME280;51709;54.912;8.316;2023-04-05T11:08:06;102370.09;;;47.42;11.09
65131;BME280;51709;54.912;8.316;2023-04-05T11:13:54;102365.63;;;50.50;9.58
65131;BME280;51709;54.912;8.316;2023-04-05T11:19:16;102358.28;;;52.16;9.14
65131;BME280;51709;54.912;8.316;2023-04-05T11:24:57;102342.88;;;49.54;9.91
65131;BME280;51709;54.912;8.316;2023-04-05T11:36:08;102333.28;;;48.24;10.75
65131;BME280;51709;54.912;8.316;2023-04-05T11:41:32;102316.91;;;42.68;13.69
65131;BME280;51709;54.912;8.316;2023-04-05T11:46:53;102318.19;;;41.65;13.51
65131;BME280;51709;54.912;8.316;2023-04-05T11:52:15;102299.75;;;32.19;20.68
65131;BME280;51709;54.912;8.316;2023-04-05T11:57:36;102306.91;;;25.76;26.73
65131;BME280;51709;54.912;8.316;2023-04-05T12:02:57;102303.91;;;25.82;25.08
65131;BME280;51709;54.912;8.316;2023-04-05T12:08:18;102290.31;;;23.27;26.92
65131;BME280;51709;54.912;8.316;2023-04-05T12:13:39;102286.00;;;19.63;30.97
65131;BME280;51709;54.912;8.316;2023-04-05T12:19:00;102282.13;;;22.62;26.10
65131;BME280;51709;54.912;8.316;2023-04-05T12:24:20;102295.63;;;35.96;13.43
65131;BME280;51709;54.912;8.316;2023-04-05T12:29:41;102308.88;;;44.22;8.89
65131;BME280;51709;54.912;8.316;2023-04-05T12:35:05;102312.16;;;44.68;9.15
65131;BME280;51709;54.912;8.316;2023-04-05T12:40:26;102305.41;;;45.50;8.82
65131;BME280;51709;54.912;8.316;2023-04-05T12:45:47;102301.94;;;46.73;8.33
65131;BME280;51709;54.912;8.316;2023-04-05T12:51:15;102287.69;;;46.13;8.54
65131;BME280;51709;54.912;8.316;2023-04-05T12:56:37;102291.81;;;43.45;10.06
65131;BME280;51709;54.912;8.316;2023-04-05T13:01:58;102289.34;;;46.03;9.06
65131;BME280;51709;54.912;8.316;2023-04-05T13:07:19;102287.44;;;45.79;9.14
65131;BME280;51709;54.912;8.316;2023-04-05T13:13:04;102275.75;;;40.28;12.03
65131;BME280;51709;54.912;8.316;2023-04-05T13:18:25;102262.94;;;32.53;17.42
65131;BME280;51709;54.912;8.316;2023-04-05T13:23:45;102260.78;;;25.70;23.44
65131;BME280;51709;54.912;8.316;2023-04-05T13:29:05;102243.00;;;20.65;28.34
65131;BME280;51709;54.912;8.316;2023-04-05T13:34:27;102233.56;;;17.24;31.96
65131;BME280;51709;54.912;8.316;2023-04-05T13:39:47;102222.94;;;16.64;31.64
65131;BME280;51709;54.912;8.316;2023-04-05T13:45:08;102217.94;;;16.58;30.91
65131;BME280;51709;54.912;8.316;2023-04-05T13:50:29;102218.50;;;20.90;24.91
65131;BME280;51709;54.912;8.316;2023-04-05T13:55:49;102222.41;;;22.88;22.63
65131;BME280;51709;54.912;8.316;2023-04-05T14:01:10;102213.84;;;25.78;20.05
65131;BME280;51709;54.912;8.316;2023-04-05T14:06:31;102212.03;;;34.06;13.74
65131;BME280;51709;54.912;8.316;2023-04-05T14:11:51;102222.41;;;39.16;10.81
65131;BME280;51709;54.912;8.316;2023-04-05T14:17:12;102216.97;;;43.20;9.03
65131;BME280;51709;54.912;8.316;2023-04-05T14:22:32;102199.16;;;38.12;12.11
65131;BME280;51709;54.912;8.316;2023-04-05T14:27:52;102200.78;;;28.21;20.33
65131;BME280;51709;54.912;8.316;2023-04-05T14:33:13;102183.50;;;23.64;24.63
65131;BME280;51709;54.912;8.316;2023-04-05T14:38:35;102181.78;;;20.31;28.31
65131;BME280;51709;54.912;8.316;2023-04-05T14:43:56;102166.38;;;17.46;31.33
65131;BME280;51709;54.912;8.316;2023-04-05T14:49:16;102180.25;;;14.73;34.61
65131;BME280;51709;54.912;8.316;2023-04-05T14:54:37;102167.78;;;13.05;36.57
65131;BME280;51709;54.912;8.316;2023-04-05T14:59:57;102165.16;;;11.93;38.02
65131;BME280;51709;54.912;8.316;2023-04-05T15:05:18;102157.69;;;11.38;38.21
65131;BME280;51709;54.912;8.316;2023-04-05T15:10:39;102162.88;;;11.14;38.42
65131;BME280;51709;54.912;8.316;2023-04-05T15:16:02;102152.31;;;11.99;36.66
65131;BME280;51709;54.912;8.316;2023-04-05T15:21:23;102155.56;;;13.24;34.46
65131;BME280;51709;54.912;8.316;2023-04-05T15:26:45;102144.31;;;12.36;36.13
65131;BME280;51709;54.912;8.316;2023-04-05T15:38:16;102144.91;;;11.12;38.51
65131;BME280;51709;54.912;8.316;2023-04-05T15:43:37;102129.53;;;12.60;36.22
65131;BME280;51709;54.912;8.316;2023-04-05T15:48:58;102128.31;;;13.00;35.37
65131;BME280;51709;54.912;8.316;2023-04-05T15:54:20;102117.59;;;12.53;36.43
65131;BME280;51709;54.912;8.316;2023-04-05T15:59:40;102119.34;;;12.47;36.80
65131;BME280;51709;54.912;8.316;2023-04-05T16:05:01;102111.09;;;12.08;37.96
65131;BME280;51709;54.912;8.316;2023-04-05T16:10:23;102105.03;;;12.15;37.98
65131;BME280;51709;54.912;8.316;2023-04-05T16:15:44;102106.38;;;12.61;37.37
65131;BME280;51709;54.912;8.316;2023-04-05T16:21:05;102100.31;;;12.67;37.63
65131;BME280;51709;54.912;8.316;2023-04-05T16:26:26;102111.06;;;12.07;39.14
65131;BME280;51709;54.912;8.316;2023-04-05T16:31:47;102104.25;;;11.96;39.31
65131;BME280;51709;54.912;8.316;2023-04-05T16:37:07;102100.19;;;11.63;40.17
65131;BME280;51709;54.912;8.316;2023-04-05T16:42:28;102090.75;;;11.62;39.94
65131;BME280;51709;54.912;8.316;2023-04-05T16:47:49;102095.22;;;11.18;40.78
65131;BME280;51709;54.912;8.316;2023-04-05T16:53:11;102086.69;;;11.06;41.15
65131;BME280;51709;54.912;8.316;2023-04-05T16:58:31;102085.81;;;11.09;40.83
65131;BME280;51709;54.912;8.316;2023-04-05T17:03:52;102090.91;;;11.21;40.78
65131;BME280;51709;54.912;8.316;2023-04-05T17:09:13;102087.56;;;10.93;41.31
65131;BME280;51709;54.912;8.316;2023-04-05T17:14:35;102089.34;;;10.68;41.77
65131;BME280;51709;54.912;8.316;2023-04-05T17:19:55;102093.59;;;10.22;42.65
65131;BME280;51709;54.912;8.316;2023-04-05T17:25:16;102086.72;;;10.07;43.21
65131;BME280;51709;54.912;8.316;2023-04-05T17:30:36;102079.06;;;10.09;43.09
65131;BME280;51709;54.912;8.316;2023-04-05T17:35:57;102081.56;;;9.82;43.73
65131;BME280;51709;54.912;8.316;2023-04-05T17:41:17;102075.53;;;9.60;44.26
65131;BME280;51709;54.912;8.316;2023-04-05T17:46:38;102081.41;;;9.30;44.78
65131;BME280;51709;54.912;8.316;2023-04-05T17:52:08;102081.22;;;8.92;45.43
65131;BME280;51709;54.912;8.316;2023-04-05T17:57:28;102084.38;;;8.59;45.94
65131;BME280;51709;54.912;8.316;2023-04-05T18:02:49;102081.56;;;8.28;46.25
65131;BME280;51709;54.912;8.316;2023-04-05T18:08:11;102086.44;;;8.01;46.62
65131;BME280;51709;54.912;8.316;2023-04-05T18:13:32;102081.88;;;7.71;47.00
65131;BME280;51709;54.912;8.316;2023-04-05T18:18:52;102086.78;;;7.55;47.17
65131;BME280;51709;54.912;8.316;2023-04-05T18:24:13;102084.13;;;7.46;47.28
65131;BME280;51709;54.912;8.316;2023-04-05T18:29:33;102082.31;;;7.36;47.31
65131;BME280;51709;54.912;8.316;2023-04-05T18:34:57;102089.81;;;7.23;47.50
65131;BME280;51709;54.912;8.316;2023-04-05T18:40:17;102079.50;;;7.14;47.76
65131;BME280;51709;54.912;8.316;2023-04-05T18:45:38;102084.59;;;7.14;47.61
65131;BME280;51709;54.912;8.316;2023-04-05T18:50:59;102088.97;;;7.23;47.40
65131;BME280;51709;54.912;8.316;2023-04-05T18:56:20;102078.63;;;7.14;47.53
65131;BME280;51709;54.912;8.316;2023-04-05T19:01:40;102069.94;;;7.01;47.86
65131;BME280;51709;54.912;8.316;2023-04-05T19:07:01;102076.59;;;6.89;47.92
65131;BME280;51709;54.912;8.316;2023-04-05T19:12:21;102079.84;;;6.79;48.09
65131;BME280;51709;54.912;8.316;2023-04-05T19:17:42;102083.94;;;6.69;48.34
65131;BME280;51709;54.912;8.316;2023-04-05T19:23:02;102082.03;;;6.56;48.50
65131;BME280;51709;54.912;8.316;2023-04-05T19:28:23;102082.75;;;6.47;48.71
65131;BME280;51709;54.912;8.316;2023-04-05T19:33:45;102075.78;;;6.37;48.97
65131;BME280;51709;54.912;8.316;2023-04-05T19:39:07;102076.47;;;6.26;49.26
65131;BME280;51709;54.912;8.316;2023-04-05T19:44:48;102074.56;;;6.14;49.60
65131;BME280;51709;54.912;8.316;2023-04-05T19:56:07;102065.66;;;5.92;49.69
65131;BME280;51709;54.912;8.316;2023-04-05T20:01:33;102066.34;;;5.83;49.92
65131;BME280;51709;54.912;8.316;2023-04-05T20:06:54;102062.81;;;5.77;50.04
65131;BME280;51709;54.912;8.316;2023-04-05T20:12:18;102049.06;;;5.67;49.99
65131;BME280;51709;54.912;8.316;2023-04-05T20:17:42;102062.47;;;5.58;50.13
65131;BME280;51709;54.912;8.316;2023-04-05T20:23:04;102052.03;;;5.46;50.22
65131;BME280;51709;54.912;8.316;2023-04-05T20:28:27;102053.41;;;5.28;50.76
65131;BME280;51709;54.912;8.316;2023-04-05T20:34:12;102043.91;;;5.21;51.07
65131;BME280;51709;54.912;8.316;2023-04-05T20:39:33;102048.84;;;5.13;50.97
65131;BME280;51709;54.912;8.316;2023-04-05T20:44:54;102047.72;;;5.00;51.32
65131;BME280;51709;54.912;8.316;2023-04-05T20:50:16;102043.38;;;4.96;51.36
65131;BME280;51709;54.912;8.316;2023-04-05T20:55:37;102037.31;;;4.89;51.64
65131;BME280;51709;54.912;8.316;2023-04-05T21:00:58;102029.47;;;4.80;51.69
65131;BME280;51709;54.912;8.316;2023-04-05T21:06:22;102015.72;;;4.70;51.95
65131;BME280;51709;54.912;8.316;2023-04-05T21:11:43;102012.19;;;4.63;52.14
65131;BME280;51709;54.912;8.316;2023-04-05T21:17:03;102007.81;;;4.58;52.09
65131;BME280;51709;54.912;8.316;2023-04-05T21:22:24;101996.75;;;4.56;52.31
65131;BME280;51709;54.912;8.316;2023-04-05T21:27:45;101995.75;;;4.49;52.52
65131;BME280;51709;54.912;8.316;2023-04-05T21:33:06;101990.50;;;4.43;52.58
65131;BME280;51709;54.912;8.316;2023-04-05T21:38:26;101991.13;;;4.32;52.88
65131;BME280;51709;54.912;8.316;2023-04-05T21:43:47;101993.22;;;4.14;53.31
65131;BME280;51709;54.912;8.316;2023-04-05T21:49:07;101992.31;;;4.10;53.40
65131;BME280;51709;54.912;8.316;2023-04-05T21:54:28;101993.16;;;4.11;53.50
65131;BME280;51709;54.912;8.316;2023-04-05T21:59:48;101979.50;;;4.06;53.48
65131;BME280;51709;54.912;8.316;2023-04-05T22:05:09;101981.88;;;4.01;53.77
65131;BME280;51709;54.912;8.316;2023-04-05T22:10:30;101980.00;;;3.92;53.89
65131;BME280;51709;54.912;8.316;2023-04-05T22:15:51;101974.34;;;3.70;54.25
65131;BME280;51709;54.912;8.316;2023-04-05T22:21:11;101967.53;;;3.68;54.34
65131;BME280;51709;54.912;8.316;2023-04-05T22:26:32;101963.22;;;3.64;54.54
65131;BME280;51709;54.912;8.316;2023-04-05T22:31:53;101965.66;;;3.61;54.40
65131;BME280;51709;54.912;8.316;2023-04-05T22:37:14;101962.88;;;3.51;54.50
65131;BME280;51709;54.912;8.316;2023-04-05T22:42:35;101954.97;;;3.41;54.65
65131;BME280;51709;54.912;8.316;2023-04-05T22:47:57;101961.44;;;3.29;54.91
65131;BME280;51709;54.912;8.316;2023-04-05T22:53:17;101956.84;;;3.16;55.12
65131;BME280;51709;54.912;8.316;2023-04-05T22:58:38;101954.88;;;3.05;55.39
65131;BME280;51709;54.912;8.316;2023-04-05T23:03:59;101951.69;;;3.13;55.04
65131;BME280;51709;54.912;8.316;2023-04-05T23:09:20;101954.28;;;3.14;55.12
65131;BME280;51709;54.912;8.316;2023-04-05T23:14:41;101951.56;;;3.08;54.98
65131;BME280;51709;54.912;8.316;2023-04-05T23:20:05;101947.28;;;3.07;55.20
65131;BME280;51709;54.912;8.316;2023-04-05T23:25:27;101949.06;;;3.10;55.26
65131;BME280;51709;54.912;8.316;2023-04-05T23:30:47;101933.91;;;3.13;55.18
65131;BME280;51709;54.912;8.316;2023-04-05T23:36:08;101935.63;;;3.14;55.26
65131;BME280;51709;54.912;8.316;2023-04-05T23:41:29;101937.47;;;3.18;55.26
65131;BME280;51709;54.912;8.316;2023-04-05T23:46:50;101940.00;;;3.18;55.21
65131;BME280;51709;54.912;8.316;2023-04-05T23:52:11;101927.34;;;3.19;55.33
65131;BME280;51709;54.912;8.316;2023-04-05T23:57:31;101922.28;;;3.19;55.49
